Time;durP1;ratioP1;P1;durP2;ratioP2;P2;SDS_P1;SDS_P2;PMS_P1;PMS_P2;Temp;Humidity;BMP_temperature;BMP_pressure;BME280_temperature;BME280_humidity;BME280_pressure;Samples;Min_cycle;Max_cycle;Signal;HPM_P1;HPM_P2
2024/01/23 00:00:24;;;;;;;0.40;0.40;;;;;;;6.43;100.00;95907.06;4358445;32;20201;-65
2024/01/23 00:02:50;;;;;;;0.33;0.23;;;;;;;6.49;100.00;95913.94;4357045;32;20275;-65
2024/01/23 00:05:15;;;;;;;0.33;0.33;;;;;;;6.47;100.00;95915.25;4349268;32;20216;-65
2024/01/23 00:07:41;;;;;;;1.13;0.47;;;;;;;6.60;100.00;95906.94;4368090;32;20351;-65
2024/01/23 00:10:06;;;;;;;0.30;0.30;;;;;;;6.51;100.00;95905.78;4356032;32;20259;-65
2024/01/23 00:12:32;;;;;;;0.10;0.10;;;;;;;6.48;100.00;95912.38;4351202;32;20247;-65
2024/01/23 00:14:58;;;;;;;0.20;0.20;;;;;;;6.41;100.00;95911.81;4340438;32;20193;-65
2024/01/23 00:17:24;;;;;;;0.10;0.10;;;;;;;6.46;100.00;95911.81;4363783;32;20205;-65
2024/01/23 00:19:49;;;;;;;0.30;0.30;;;;;;;6.44;100.00;95905.25;4365317;32;20300;-65
2024/01/23 00:22:15;;;;;;;3.30;0.30;;;;;;;6.47;100.00;95905.50;4361193;32;20232;-66
2024/01/23 00:24:40;;;;;;;0.47;0.40;;;;;;;6.44;100.00;95911.28;4354141;32;21744;-65
2024/01/23 00:27:05;;;;;;;0.67;0.60;;;;;;;6.54;100.00;95910.56;4362635;32;20236;-65
2024/01/23 00:29:33;;;;;;;0.50;0.50;;;;;;;6.56;100.00;95919.03;4351195;32;20219;-65
2024/01/23 00:31:58;;;;;;;1.90;0.57;;;;;;;6.55;100.00;95925.34;4364392;32;20196;-65
2024/01/23 00:34:23;;;;;;;0.10;0.10;;;;;;;6.49;100.00;95921.84;4369360;32;20324;-66
2024/01/23 00:36:50;;;;;;;0.30;0.30;;;;;;;6.58;100.00;95932.75;4349680;32;20189;-65
2024/01/23 00:39:15;;;;;;;0.40;0.40;;;;;;;6.59;100.00;95929.06;4352722;32;20193;-65
2024/01/23 00:41:40;;;;;;;0.10;0.10;;;;;;;6.70;100.00;95932.53;4356675;32;20384;-65
2024/01/23 00:44:06;;;;;;;0.33;0.30;;;;;;;6.67;100.00;95923.31;4365748;32;20216;-65
2024/01/23 00:46:31;;;;;;;0.10;0.10;;;;;;;6.73;100.00;95932.84;4364937;32;20219;-65
2024/01/23 00:48:56;;;;;;;0.10;0.10;;;;;;;6.73;100.00;95929.41;4347916;32;20209;-65
2024/01/23 00:51:22;;;;;;;0.40;0.40;;;;;;;6.78;100.00;95932.88;4366422;32;20188;-65
2024/01/23 00:53:47;;;;;;;0.70;0.30;;;;;;;6.76;100.00;95936.81;4368356;32;20200;-66
2024/01/23 00:56:12;;;;;;;0.47;0.20;;;;;;;6.73;100.00;95943.38;4362461;32;20204;-65
2024/01/23 00:58:38;;;;;;;0.83;0.70;;;;;;;6.74;100.00;95918.63;4358132;32;20192;-65
2024/01/23 01:01:03;;;;;;;0.10;0.10;;;;;;;6.92;100.00;95919.25;4364230;32;20208;-65
2024/01/23 01:03:30;;;;;;;0.30;0.20;;;;;;;6.81;100.00;95927.09;4370417;32;20196;-65
2024/01/23 01:05:55;;;;;;;0.20;0.20;;;;;;;6.83;100.00;95925.00;4356798;32;20205;-65
2024/01/23 01:08:20;;;;;;;0.20;0.20;;;;;;;6.81;100.00;95928.94;4360915;32;20288;-66
2024/01/23 01:10:47;;;;;;;0.10;0.10;;;;;;;6.82;100.00;95936.59;4353847;32;20254;-65
2024/01/23 01:13:12;;;;;;;0.00;0.00;;;;;;;6.77;100.00;95947.13;4355236;32;20284;-65
2024/01/23 01:15:38;;;;;;;0.30;0.30;;;;;;;6.72;100.00;95941.78;4365598;32;20280;-65
2024/01/23 01:18:06;;;;;;;0.00;0.00;;;;;;;6.79;100.00;95957.41;4372689;32;20216;-66
2024/01/23 01:20:32;;;;;;;0.30;0.30;;;;;;;6.81;100.00;95952.69;4358176;32;20197;-65
2024/01/23 01:22:57;;;;;;;0.20;0.20;;;;;;;6.88;100.00;95977.75;4367703;32;20337;-65
2024/01/23 01:25:24;;;;;;;0.10;0.10;;;;;;;6.94;100.00;95977.81;4371398;32;20292;-65
2024/01/23 01:27:50;;;;;;;0.00;0.00;;;;;;;6.94;100.00;95996.28;4368909;32;20200;-65
2024/01/23 01:30:15;;;;;;;0.00;0.00;;;;;;;6.97;100.00;96001.84;4364368;32;20325;-65
2024/01/23 01:32:41;;;;;;;0.30;0.30;;;;;;;6.90;100.00;95998.63;4370123;32;20252;-65
2024/01/23 01:35:06;;;;;;;0.40;0.40;;;;;;;6.81;100.00;95977.22;4355609;32;20258;-65
2024/01/23 01:37:32;;;;;;;0.00;0.00;;;;;;;6.84;100.00;95979.34;4358604;32;20257;-65
2024/01/23 01:39:57;;;;;;;4.00;0.40;;;;;;;6.76;100.00;95976.37;4347761;32;20207;-65
2024/01/23 01:42:22;;;;;;;7.20;0.50;;;;;;;6.65;100.00;95980.75;4353408;32;20197;-64
2024/01/23 01:44:50;;;;;;;0.30;0.30;;;;;;;6.67;100.00;95972.59;4354356;32;20220;-65
2024/01/23 01:47:17;;;;;;;0.23;0.23;;;;;;;6.54;100.00;95971.19;4355131;32;20189;-65
2024/01/23 01:49:43;;;;;;;0.00;0.00;;;;;;;6.41;100.00;95974.25;4349630;32;20343;-65
2024/01/23 01:52:11;;;;;;;0.37;0.23;;;;;;;6.34;100.00;95969.19;4349853;32;20306;-65
2024/01/23 01:54:40;;;;;;;0.30;0.30;;;;;;;6.42;100.00;95974.00;4345714;32;20235;-65
2024/01/23 01:57:07;;;;;;;0.10;0.10;;;;;;;6.28;100.00;95972.81;4363616;32;20288;-65
2024/01/23 01:59:32;;;;;;;0.10;0.10;;;;;;;6.18;100.00;95970.88;4359821;32;20344;-65
2024/01/23 02:01:59;;;;;;;0.93;0.47;;;;;;;6.30;100.00;95962.00;4352860;32;20317;-65
2024/01/23 02:04:24;;;;;;;0.73;0.53;;;;;;;6.31;100.00;95968.87;4363710;32;20207;-65
2024/01/23 02:06:51;;;;;;;0.00;0.00;;;;;;;6.29;100.00;95974.38;4365728;32;20285;-65
2024/01/23 02:09:16;;;;;;;0.20;0.20;;;;;;;6.20;100.00;95979.34;4348185;32;20228;-65
2024/01/23 02:11:58;;;;;;;0.20;0.20;;;;;;;6.25;100.00;95977.78;4348864;32;20371;-66
2024/01/23 02:14:23;;;;;;;0.17;0.17;;;;;;;6.11;100.00;95980.81;4351410;32;20230;-65
2024/01/23 02:16:48;;;;;;;0.10;0.10;;;;;;;6.00;100.00;95986.22;4368664;32;20326;-65
2024/01/23 02:19:15;;;;;;;0.00;0.00;;;;;;;6.09;100.00;95990.78;4350918;32;20250;-65
2024/01/23 02:21:41;;;;;;;0.07;0.07;;;;;;;6.03;100.00;95991.78;4357246;32;20306;-65
2024/01/23 02:24:07;;;;;;;0.37;0.37;;;;;;;6.04;100.00;95990.75;4362689;32;20325;-65
2024/01/23 02:26:32;;;;;;;1.13;0.60;;;;;;;6.06;100.00;95988.66;4353160;32;20332;-65
2024/01/23 02:28:58;;;;;;;0.53;0.30;;;;;;;6.13;100.00;95996.38;4352344;32;20196;-65
2024/01/23 02:31:23;;;;;;;0.37;0.37;;;;;;;6.08;100.00;95997.09;4346327;32;20193;-65
2024/01/23 02:33:48;;;;;;;0.37;0.33;;;;;;;6.06;100.00;96004.44;4363216;32;20235;-65
2024/01/23 02:36:14;;;;;;;0.37;0.37;;;;;;;5.98;100.00;96001.47;4356319;32;20228;-66
2024/01/23 02:38:39;;;;;;;0.40;0.40;;;;;;;6.05;100.00;96007.34;4352447;32;20231;-65
2024/01/23 02:41:05;;;;;;;0.40;0.40;;;;;;;6.04;100.00;96017.06;4351537;32;20197;-65
2024/01/23 02:43:30;;;;;;;0.03;0.03;;;;;;;6.12;100.00;96019.28;4361331;32;20228;-65
2024/01/23 02:45:56;;;;;;;1.50;0.67;;;;;;;6.07;100.00;96024.47;4358781;32;20303;-65
2024/01/23 02:48:21;;;;;;;0.50;0.50;;;;;;;6.00;100.00;96021.25;4357031;32;20240;-66
2024/01/23 02:50:46;;;;;;;0.00;0.00;;;;;;;6.07;100.00;96027.12;4349608;32;20237;-65
2024/01/23 02:53:12;;;;;;;0.87;0.30;;;;;;;6.02;100.00;96021.81;4368445;32;20192;-65
2024/01/23 02:55:37;;;;;;;0.20;0.20;;;;;;;5.90;100.00;96023.78;4370070;32;20196;-65
2024/01/23 02:58:03;;;;;;;0.10;0.10;;;;;;;5.88;100.00;96025.81;4357074;32;20281;-65
2024/01/23 03:00:28;;;;;;;0.10;0.10;;;;;;;5.98;100.00;96018.09;4370995;32;20192;-65
2024/01/23 03:02:53;;;;;;;0.30;0.30;;;;;;;5.97;100.00;96021.75;4358970;32;20255;-65
2024/01/23 03:05:19;;;;;;;0.20;0.20;;;;;;;5.97;100.00;96023.59;4373262;32;20200;-65
2024/01/23 03:07:44;;;;;;;0.30;0.23;;;;;;;5.97;100.00;96021.75;4360243;32;20212;-65
2024/01/23 03:10:10;;;;;;;0.30;0.20;;;;;;;6.04;100.00;96043.41;4367960;32;20197;-65
2024/01/23 03:12:35;;;;;;;0.60;0.43;;;;;;;6.08;100.00;96028.72;4357094;32;20302;-66
2024/01/23 03:15:00;;;;;;;0.30;0.30;;;;;;;5.86;100.00;96039.22;4360627;32;20204;-65
2024/01/23 03:17:26;;;;;;;1.07;0.63;;;;;;;5.86;100.00;96033.97;4373583;32;20204;-65
2024/01/23 03:19:51;;;;;;;0.60;0.60;;;;;;;5.84;100.00;96033.41;4353862;32;20224;-64
2024/01/23 03:22:16;;;;;;;0.00;0.00;;;;;;;5.93;100.00;96043.53;4356228;32;20188;-65
2024/01/23 03:24:42;;;;;;;0.20;0.20;;;;;;;5.94;100.00;96059.09;4351170;32;20184;-65
2024/01/23 03:27:07;;;;;;;0.00;0.00;;;;;;;5.99;100.00;96050.47;4353493;32;20193;-65
2024/01/23 03:29:40;;;;;;;0.00;0.00;;;;;;;5.95;100.00;96065.97;4364992;32;20237;-65
2024/01/23 03:32:07;;;;;;;0.03;0.03;;;;;;;5.97;100.00;96069.16;4365697;32;20297;-65
2024/01/23 03:34:32;;;;;;;0.37;0.37;;;;;;;5.86;100.00;96060.28;4357640;32;20362;-65
2024/01/23 03:37:00;;;;;;;0.40;0.40;;;;;;;5.81;100.00;96059.44;4361302;32;20300;-64
2024/01/23 03:39:26;;;;;;;0.30;0.30;;;;;;;5.95;100.00;96057.28;4363538;32;20222;-65
2024/01/23 03:41:51;;;;;;;0.20;0.20;;;;;;;5.80;100.00;96063.13;4354177;32;20356;-63
2024/01/23 03:44:17;;;;;;;4.47;0.50;;;;;;;5.79;100.00;96062.31;4363832;32;20204;-65
2024/01/23 03:46:42;;;;;;;0.93;0.40;;;;;;;5.93;100.00;96075.94;4351504;32;20181;-66
2024/01/23 03:49:07;;;;;;;1.13;0.90;;;;;;;5.81;100.00;96097.09;4358145;32;20199;-65
2024/01/23 03:51:32;;;;;;;0.17;0.17;;;;;;;5.86;100.00;96105.03;4359879;32;20221;-65
2024/01/23 03:53:58;;;;;;;0.20;0.20;;;;;;;5.85;100.00;96110.56;4364495;32;20212;-65
2024/01/23 03:56:23;;;;;;;0.43;0.43;;;;;;;5.86;100.00;96098.97;4367611;32;20231;-65
2024/01/23 03:58:48;;;;;;;0.77;0.60;;;;;;;5.88;100.00;96091.63;4354740;32;20205;-65
2024/01/23 04:01:14;;;;;;;0.47;0.47;;;;;;;5.86;100.00;96083.19;4373929;32;20211;-65
2024/01/23 04:03:39;;;;;;;0.30;0.30;;;;;;;5.80;100.00;96086.81;4359353;32;20218;-65
2024/01/23 04:06:05;;;;;;;0.10;0.10;;;;;;;5.86;100.00;96072.66;4355052;32;20215;-65
2024/01/23 04:08:30;;;;;;;0.57;0.57;;;;;;;5.84;100.00;96080.78;4355376;32;20211;-65
2024/01/23 04:10:57;;;;;;;0.10;0.10;;;;;;;5.85;100.00;96086.84;4352531;32;20178;-65
2024/01/23 04:13:23;;;;;;;1.13;0.60;;;;;;;5.78;100.00;96087.06;4370269;32;20178;-64
2024/01/23 04:15:48;;;;;;;0.93;0.67;;;;;;;5.75;100.00;96094.62;4365474;32;20326;-65
2024/01/23 04:18:13;;;;;;;0.10;0.10;;;;;;;5.83;100.00;96086.31;4352072;32;20189;-68
2024/01/23 04:20:40;;;;;;;0.40;0.40;;;;;;;5.76;100.00;96081.25;4364809;32;20196;-65
2024/01/23 04:23:05;;;;;;;0.97;0.77;;;;;;;5.79;100.00;96087.84;4351470;32;20238;-65
2024/01/23 04:25:31;;;;;;;0.20;0.20;;;;;;;5.85;100.00;96092.13;4374403;32;20288;-66
2024/01/23 04:27:57;;;;;;;1.43;0.70;;;;;;;5.76;100.00;96083.06;4357642;32;20204;-65
2024/01/23 04:30:23;;;;;;;0.47;0.47;;;;;;;5.71;100.00;96075.09;4356097;32;20235;-63
2024/01/23 04:32:48;;;;;;;0.43;0.43;;;;;;;5.84;100.00;96080.78;4357376;32;20192;-65
2024/01/23 04:35:13;;;;;;;0.00;0.00;;;;;;;5.88;100.00;96091.63;4351580;32;20301;-65
2024/01/23 04:37:39;;;;;;;0.23;0.23;;;;;;;5.81;100.00;96088.41;4338783;32;20201;-66
2024/01/23 04:40:07;;;;;;;1.03;0.23;;;;;;;5.77;100.00;96096.00;4329161;32;20204;-65
2024/01/23 04:42:33;;;;;;;1.60;0.53;;;;;;;5.91;100.00;96116.72;4348599;32;20215;-65
2024/01/23 04:44:59;;;;;;;1.03;0.30;;;;;;;5.84;100.00;96111.59;4355591;32;20343;-65
2024/01/23 04:47:25;;;;;;;0.57;0.30;;;;;;;5.84;100.00;96116.84;4351338;32;20357;-64
2024/01/23 04:49:51;;;;;;;0.30;0.20;;;;;;;5.76;100.00;96125.19;4346212;32;20241;-65
2024/01/23 04:52:16;;;;;;;0.20;0.20;;;;;;;5.78;100.00;96128.37;4349578;32;20374;-65
2024/01/23 04:54:42;;;;;;;0.40;0.40;;;;;;;5.70;100.00;96128.78;4344154;32;20296;-65
2024/01/23 04:57:08;;;;;;;0.20;0.20;;;;;;;5.77;100.00;96129.41;4342542;32;20253;-65
2024/01/23 04:59:33;;;;;;;0.47;0.47;;;;;;;5.75;100.00;96144.66;4357339;32;20359;-65
2024/01/23 05:01:59;;;;;;;0.30;0.30;;;;;;;5.73;100.00;96136.19;4358912;32;20268;-65
2024/01/23 05:04:24;;;;;;;0.00;0.00;;;;;;;5.72;100.00;96142.50;4350504;32;20201;-65
2024/01/23 05:06:49;;;;;;;5.60;0.40;;;;;;;5.67;100.00;96147.69;4348175;32;20189;-65
2024/01/23 05:09:15;;;;;;;0.50;0.50;;;;;;;5.67;100.00;96145.06;4337323;32;20194;-65
2024/01/23 05:11:40;;;;;;;0.47;0.47;;;;;;;5.59;100.00;96140.22;4345850;32;20201;-65
2024/01/23 05:14:05;;;;;;;0.73;0.73;;;;;;;5.59;100.00;96156.00;4341874;32;20240;-65
2024/01/23 05:16:31;;;;;;;1.20;0.30;;;;;;;5.59;100.00;96141.00;4337404;32;20193;-65
2024/01/23 05:18:57;;;;;;;0.40;0.30;;;;;;;5.66;100.00;96159.25;4339547;32;20205;-65
2024/01/23 05:21:23;;;;;;;3.60;1.03;;;;;;;5.69;100.00;96162.19;4354460;32;20223;-65
2024/01/23 05:23:48;;;;;;;0.57;0.57;;;;;;;5.70;100.00;96163.00;4357940;32;20322;-65
2024/01/23 05:26:13;;;;;;;1.33;0.37;;;;;;;5.81;100.00;96172.66;4348655;32;20303;-65
2024/01/23 05:28:39;;;;;;;1.23;1.13;;;;;;;5.78;100.00;96167.87;4341739;32;20220;-65
2024/01/23 05:31:04;;;;;;;0.20;0.20;;;;;;;5.67;100.00;96174.00;4363002;32;20208;-65
2024/01/23 05:33:29;;;;;;;0.13;0.13;;;;;;;5.66;100.00;96186.38;4352827;32;20199;-64
2024/01/23 05:35:55;;;;;;;0.67;0.63;;;;;;;5.59;100.00;96192.84;4354349;32;20277;-65
2024/01/23 05:38:20;;;;;;;0.93;0.40;;;;;;;5.69;100.00;96208.78;4371748;32;20220;-65
2024/01/23 05:40:45;;;;;;;1.10;0.60;;;;;;;5.60;100.00;96203.13;4369037;32;20193;-65
2024/01/23 05:43:11;;;;;;;0.33;0.33;;;;;;;5.59;100.00;96209.44;4348470;32;20204;-65
2024/01/23 05:45:36;;;;;;;0.20;0.20;;;;;;;5.49;100.00;96204.00;4348149;32;20241;-65
2024/01/23 05:48:01;;;;;;;0.30;0.20;;;;;;;5.41;100.00;96213.06;4367442;32;20231;-65
2024/01/23 05:50:27;;;;;;;0.20;0.20;;;;;;;5.53;100.00;96223.53;4356326;32;20260;-65
2024/01/23 05:52:53;;;;;;;0.10;0.10;;;;;;;5.49;100.00;96241.63;4361952;32;20250;-63
2024/01/23 05:55:18;;;;;;;1.30;0.67;;;;;;;5.49;100.00;96248.72;4365886;32;20205;-65
2024/01/23 05:57:44;;;;;;;0.57;0.50;;;;;;;5.46;100.00;96257.91;4365216;32;20338;-65
2024/01/23 06:00:13;;;;;;;0.80;0.80;;;;;;;5.45;100.00;96266.81;4351064;32;20206;-65
2024/01/23 06:02:38;;;;;;;0.20;0.20;;;;;;;5.57;100.00;96274.66;4362375;32;20196;-65
2024/01/23 06:05:04;;;;;;;0.53;0.50;;;;;;;5.51;100.00;96286.94;4362226;32;20359;-66
2024/01/23 06:07:29;;;;;;;0.47;0.27;;;;;;;5.53;100.00;96292.75;4367961;32;20233;-65
2024/01/23 06:09:55;;;;;;;0.30;0.30;;;;;;;5.52;100.00;96298.25;4366519;32;20196;-65
2024/01/23 06:12:21;;;;;;;1.50;0.57;;;;;;;5.52;100.00;96293.78;4351225;32;20212;-65
2024/01/23 06:14:46;;;;;;;0.30;0.30;;;;;;;5.56;100.00;96309.12;4356102;32;20193;-65
2024/01/23 06:17:11;;;;;;;0.20;0.20;;;;;;;5.59;100.00;96313.91;4356067;32;20288;-65
2024/01/23 06:19:37;;;;;;;0.83;0.60;;;;;;;5.50;100.00;96322.16;4366394;32;20189;-65
2024/01/23 06:22:02;;;;;;;1.90;0.37;;;;;;;5.64;100.00;96309.50;4359939;32;20185;-66
2024/01/23 06:24:31;;;;;;;0.43;0.30;;;;;;;5.72;100.00;96305.69;4362305;32;20188;-65
2024/01/23 06:26:56;;;;;;;0.50;0.47;;;;;;;5.81;100.00;96317.44;4357507;32;20215;-65
2024/01/23 06:29:22;;;;;;;0.20;0.20;;;;;;;5.70;100.00;96320.94;4359810;32;20329;-63
2024/01/23 06:31:48;;;;;;;0.30;0.30;;;;;;;5.64;100.00;96333.19;4349509;32;20275;-66
2024/01/23 06:34:14;;;;;;;0.40;0.40;;;;;;;5.64;100.00;96324.50;4343590;32;20224;-66
2024/01/23 06:36:39;;;;;;;0.87;0.70;;;;;;;5.64;100.00;96337.66;4349330;32;20285;-65
2024/01/23 06:39:05;;;;;;;2.33;0.93;;;;;;;5.63;100.00;96331.59;4341128;32;20231;-65
2024/01/23 06:41:31;;;;;;;0.17;0.17;;;;;;;5.57;100.00;96352.81;4342078;32;20258;-66
2024/01/23 06:43:56;;;;;;;0.30;0.30;;;;;;;5.69;100.00;96371.97;4348878;32;20332;-66
2024/01/23 06:46:22;;;;;;;0.20;0.20;;;;;;;5.76;100.00;96388.44;4355338;32;20193;-63
2024/01/23 06:48:47;;;;;;;0.83;0.40;;;;;;;5.79;100.00;96388.75;4336679;32;20197;-66
2024/01/23 06:51:13;;;;;;;1.80;0.93;;;;;;;5.75;100.00;96392.09;4325894;32;20238;-66
2024/01/23 06:53:38;;;;;;;0.53;0.53;;;;;;;5.70;100.00;96394.63;4352324;32;20244;-64
2024/01/23 06:56:03;;;;;;;1.20;1.10;;;;;;;5.82;100.00;96382.19;4333537;32;20240;-61
2024/01/23 06:58:29;;;;;;;2.10;0.97;;;;;;;8.77;100.00;96371.53;4346192;32;20200;-61
2024/01/23 07:00:54;;;;;;;0.77;0.77;;;;;;;10.17;100.00;96379.47;4351846;32;20240;-61
2024/01/23 07:03:20;;;;;;;0.53;0.53;;;;;;;10.80;97.37;96376.53;4338706;32;20193;-60
2024/01/23 07:05:45;;;;;;;2.43;0.47;;;;;;;11.80;86.48;96384.44;4338383;32;20216;-60
2024/01/23 07:08:10;;;;;;;0.40;0.40;;;;;;;11.79;84.74;96404.13;4347695;32;20201;-61
2024/01/23 07:10:36;;;;;;;0.23;0.23;;;;;;;11.84;81.81;96404.91;4349369;32;20193;-61
2024/01/23 07:13:01;;;;;;;0.47;0.10;;;;;;;12.41;80.12;96408.78;4337730;32;20220;-61
2024/01/23 07:15:26;;;;;;;0.73;0.50;;;;;;;12.09;75.78;96411.13;4339346;32;20239;-61
2024/01/23 07:17:53;;;;;;;0.63;0.63;;;;;;;12.32;77.04;96405.91;4356195;32;20204;-62
2024/01/23 07:20:18;;;;;;;2.17;0.37;;;;;;;12.50;77.06;96412.44;4349467;32;20185;-60
2024/01/23 07:22:44;;;;;;;0.50;0.40;;;;;;;12.47;75.77;96422.88;4345699;32;20211;-63
2024/01/23 07:25:09;;;;;;;8.00;1.23;;;;;;;10.47;79.17;96436.25;4347424;32;20219;-63
2024/01/23 07:27:35;;;;;;;1.90;0.77;;;;;;;8.80;87.44;96434.53;4351365;32;20204;-63
2024/01/23 07:30:00;;;;;;;1.63;0.87;;;;;;;7.47;95.27;96439.56;4346013;32;20203;-62
2024/01/23 07:32:26;;;;;;;1.20;0.43;;;;;;;7.27;98.25;96452.50;4356594;32;20215;-63
2024/01/23 07:34:51;;;;;;;0.33;0.33;;;;;;;6.58;100.00;96457.28;4362094;32;20234;-63
2024/01/23 07:37:16;;;;;;;12.23;0.60;;;;;;;6.17;100.00;96469.78;4363325;32;20298;-63
2024/01/23 07:39:42;;;;;;;0.87;0.80;;;;;;;6.20;100.00;96474.59;4359039;32;20261;-62
2024/01/23 07:42:07;;;;;;;4.63;1.23;;;;;;;6.06;100.00;96481.16;4366907;32;20216;-64
2024/01/23 07:44:37;;;;;;;2.57;1.20;;;;;;;5.85;100.00;96476.53;4349696;32;20322;-63
2024/01/23 07:47:03;;;;;;;0.50;0.50;;;;;;;5.84;100.00;96485.44;4361043;32;20243;-63
2024/01/23 07:49:29;;;;;;;1.20;0.77;;;;;;;5.98;100.00;96486.81;4361675;32;20290;-63
2024/01/23 07:51:55;;;;;;;0.30;0.30;;;;;;;6.15;100.00;96492.12;4365715;32;20204;-63
2024/01/23 07:54:20;;;;;;;0.50;0.50;;;;;;;6.12;100.00;96500.50;4358937;32;20188;-63
2024/01/23 07:56:45;;;;;;;1.60;0.63;;;;;;;5.78;100.00;96499.56;4363445;32;20189;-63
2024/01/23 07:59:11;;;;;;;0.30;0.30;;;;;;;5.91;100.00;96506.41;4364333;32;20244;-63
2024/01/23 08:01:37;;;;;;;0.77;0.30;;;;;;;5.82;100.00;96503.31;4370614;32;20225;-62
2024/01/23 08:04:02;;;;;;;0.20;0.20;;;;;;;5.74;100.00;96516.88;4346813;32;20271;-64
2024/01/23 08:06:27;;;;;;;0.60;0.57;;;;;;;5.74;100.00;96516.88;4363101;32;20205;-63
2024/01/23 08:08:53;;;;;;;0.20;0.20;;;;;;;5.90;100.00;96518.78;4358676;32;20291;-63
2024/01/23 08:11:20;;;;;;;0.20;0.20;;;;;;;5.77;100.00;96532.19;4351000;32;20197;-64
2024/01/23 08:13:46;;;;;;;0.40;0.40;;;;;;;5.69;100.00;96533.34;4362552;32;20196;-63
2024/01/23 08:16:11;;;;;;;0.37;0.37;;;;;;;5.82;100.00;96545.44;4347085;32;20296;-63
2024/01/23 08:18:38;;;;;;;0.10;0.10;;;;;;;6.07;100.00;96548.63;4367017;32;20212;-61
2024/01/23 08:21:04;;;;;;;0.30;0.30;;;;;;;6.07;100.00;96551.25;4353375;32;20248;-64
2024/01/23 08:23:29;;;;;;;0.50;0.20;;;;;;;5.92;100.00;96539.63;4346460;32;20277;-64
2024/01/23 08:25:55;;;;;;;0.13;0.13;;;;;;;5.71;100.00;96526.03;4365132;32;20379;-63
2024/01/23 08:28:22;;;;;;;0.27;0.27;;;;;;;5.50;100.00;96521.38;4361867;32;20232;-64
2024/01/23 08:30:48;;;;;;;0.87;0.27;;;;;;;5.83;100.00;96525.97;4366351;32;20268;-63
2024/01/23 08:33:17;;;;;;;0.73;0.40;;;;;;;5.95;100.00;96545.22;4365589;32;20290;-63
2024/01/23 08:35:43;;;;;;;0.03;0.03;;;;;;;6.11;100.00;96543.69;4358015;32;20215;-64
2024/01/23 08:38:09;;;;;;;0.20;0.20;;;;;;;5.79;100.00;96554.63;4354689;32;20297;-64
2024/01/23 08:40:35;;;;;;;1.03;0.13;;;;;;;5.83;100.00;96557.56;4364706;32;20290;-64
2024/01/23 08:43:00;;;;;;;0.17;0.17;;;;;;;5.80;100.00;96556.22;4347140;32;20193;-63
2024/01/23 08:45:26;;;;;;;0.10;0.10;;;;;;;5.53;100.00;96560.38;4367256;32;20292;-63
2024/01/23 08:47:51;;;;;;;0.00;0.00;;;;;;;5.68;100.00;96565.16;4368791;32;20256;-64
2024/01/23 08:50:16;;;;;;;0.10;0.10;;;;;;;5.61;100.00;96565.28;4364812;32;20200;-64
2024/01/23 08:52:43;;;;;;;0.60;0.33;;;;;;;5.77;100.00;96576.94;4358418;32;20306;-64
2024/01/23 08:55:09;;;;;;;0.10;0.10;;;;;;;5.51;100.00;96573.78;4367999;32;20208;-64
2024/01/23 08:57:34;;;;;;;0.40;0.30;;;;;;;5.49;100.00;96572.41;4359021;32;20346;-64
2024/01/23 09:00:00;;;;;;;0.00;0.00;;;;;;;5.74;100.00;96590.56;4366031;32;20352;-63
2024/01/23 09:02:26;;;;;;;0.10;0.10;;;;;;;5.80;100.00;96579.94;4356373;32;20200;-63
2024/01/23 09:04:51;;;;;;;0.40;0.40;;;;;;;6.17;100.00;96587.53;4357638;32;20193;-63
2024/01/23 09:07:18;;;;;;;0.40;0.30;;;;;;;6.19;100.00;96607.34;4359130;32;20224;-64
2024/01/23 09:09:44;;;;;;;0.43;0.37;;;;;;;6.00;100.00;96605.91;4361543;32;20211;-63
2024/01/23 09:12:09;;;;;;;0.57;0.10;;;;;;;5.89;100.00;96614.63;4348364;32;20297;-64
2024/01/23 09:14:35;;;;;;;0.03;0.03;;;;;;;5.48;100.00;96618.97;4358492;32;20199;-64
2024/01/23 09:17:01;;;;;;;0.20;0.20;;;;;;;5.29;100.00;96614.84;4370934;32;20280;-63
2024/01/23 09:19:26;;;;;;;2.07;0.80;;;;;;;5.16;100.00;96622.94;4362588;32;20293;-64
2024/01/23 09:21:54;;;;;;;0.00;0.00;;;;;;;5.08;100.00;96612.75;4365488;32;20211;-63
2024/01/23 09:24:19;;;;;;;3.43;0.43;;;;;;;5.10;100.00;96621.22;4360504;32;20237;-63
2024/01/23 09:26:44;;;;;;;0.20;0.20;;;;;;;4.90;100.00;96625.97;4345944;32;20360;-64
2024/01/23 09:29:10;;;;;;;0.57;0.30;;;;;;;5.16;100.00;96638.72;4369765;32;20197;-64
2024/01/23 09:31:46;;;;;;;0.00;0.00;;;;;;;5.00;100.00;96642.78;4364061;32;20254;-64
2024/01/23 09:34:12;;;;;;;1.13;0.47;;;;;;;5.03;100.00;96629.19;4370806;32;20200;-64
2024/01/23 09:36:37;;;;;;;0.20;0.20;;;;;;;4.77;100.00;96632.22;4358677;32;20330;-65
2024/01/23 09:39:04;;;;;;;0.07;0.07;;;;;;;4.92;100.00;96650.22;4368784;32;20285;-64
2024/01/23 09:41:33;;;;;;;0.03;0.03;;;;;;;5.10;100.00;96658.03;4367812;32;20197;-65
2024/01/23 09:43:59;;;;;;;0.20;0.20;;;;;;;4.98;100.00;96663.28;4355004;32;20285;-64
2024/01/23 09:46:24;;;;;;;0.40;0.30;;;;;;;4.69;100.00;96657.00;4361337;32;20350;-64
2024/01/23 09:48:50;;;;;;;0.50;0.50;;;;;;;4.86;100.00;96645.84;4349276;32;20201;-65
2024/01/23 09:51:17;;;;;;;0.37;0.37;;;;;;;4.60;100.00;96647.81;4367010;32;20185;-64
2024/01/23 09:53:44;;;;;;;0.30;0.20;;;;;;;4.87;100.00;96650.06;4359637;32;20435;-65
2024/01/23 09:56:14;;;;;;;0.30;0.30;;;;;;;4.94;100.00;96663.94;4368992;32;20301;-65
2024/01/23 09:58:40;;;;;;;1.10;0.43;;;;;;;4.97;100.00;96660.88;4358747;32;20294;-64
2024/01/23 10:01:05;;;;;;;0.50;0.50;;;;;;;5.15;100.00;96660.78;4371226;32;20372;-64
2024/01/23 10:03:33;;;;;;;0.53;0.53;;;;;;;5.12;100.00;96651.53;4363563;32;20215;-65
2024/01/23 10:05:58;;;;;;;0.57;0.23;;;;;;;5.10;100.00;96655.41;4351370;32;20204;-64
2024/01/23 10:08:25;;;;;;;0.63;0.63;;;;;;;5.10;100.00;96658.84;4351401;32;20277;-64
2024/01/23 10:10:59;;;;;;;0.10;0.10;;;;;;;5.09;100.00;96661.69;4356558;32;20269;-64
2024/01/23 10:13:24;;;;;;;0.60;0.50;;;;;;;5.27;100.00;96664.25;4355329;32;20281;-64
2024/01/23 10:15:53;;;;;;;0.27;0.27;;;;;;;5.34;100.00;96664.16;4352055;32;20300;-64
2024/01/23 10:18:19;;;;;;;0.43;0.43;;;;;;;5.37;100.00;96675.03;4367490;32;20207;-65
2024/01/23 10:20:46;;;;;;;0.63;0.63;;;;;;;5.42;100.00;96672.50;4363355;32;20285;-65
2024/01/23 10:23:11;;;;;;;0.50;0.50;;;;;;;5.45;100.00;96672.03;4364456;32;20224;-65
2024/01/23 10:25:38;;;;;;;0.27;0.27;;;;;;;5.75;100.00;96684.31;4364353;32;20285;-65
2024/01/23 10:28:08;;;;;;;0.40;0.40;;;;;;;5.74;100.00;96672.19;4358954;32;20220;-65
2024/01/23 10:30:36;;;;;;;0.60;0.43;;;;;;;5.71;100.00;96665.53;4366904;32;20343;-65
2024/01/23 10:33:02;;;;;;;0.53;0.53;;;;;;;5.69;100.00;96674.69;4355380;32;20288;-64
2024/01/23 10:35:27;;;;;;;1.57;0.53;;;;;;;5.93;100.00;96681.59;4347012;32;20309;-64
2024/01/23 10:37:54;;;;;;;1.03;0.53;;;;;;;5.92;100.00;96682.62;4351944;32;20265;-64
2024/01/23 10:40:23;;;;;;;0.50;0.27;;;;;;;5.90;100.00;96692.59;4368634;32;20231;-65
2024/01/23 10:42:49;;;;;;;0.10;0.10;;;;;;;5.96;100.00;96694.31;4345115;32;20356;-65
2024/01/23 10:45:17;;;;;;;0.20;0.20;;;;;;;5.86;100.00;96694.03;4358683;32;20281;-65
2024/01/23 10:47:45;;;;;;;3.60;0.90;;;;;;;5.94;100.00;96688.47;4346781;32;20295;-65
2024/01/23 10:50:11;;;;;;;0.43;0.43;;;;;;;5.88;100.00;96697.25;4352141;32;20294;-65
2024/01/23 10:52:39;;;;;;;0.40;0.40;;;;;;;5.98;100.00;96692.25;4363927;32;20346;-65
2024/01/23 10:55:06;;;;;;;2.73;0.70;;;;;;;5.97;100.00;96695.09;4342630;32;20249;-63
2024/01/23 10:57:36;;;;;;;0.40;0.40;;;;;;;6.04;100.00;96691.31;4363679;32;20313;-64
2024/01/23 11:00:12;;;;;;;0.23;0.23;;;;;;;6.27;100.00;96693.13;4365107;32;20320;-65
2024/01/23 11:02:50;;;;;;;0.50;0.50;;;;;;;6.24;100.00;96695.41;4357438;32;20276;-63
2024/01/23 11:05:19;;;;;;;0.27;0.27;;;;;;;6.15;100.00;96687.88;4361993;32;20384;-63
2024/01/23 11:07:55;;;;;;;0.30;0.30;;;;;;;6.16;100.00;96688.69;4372450;32;20292;-64
2024/01/23 11:10:29;;;;;;;1.03;0.77;;;;;;;6.11;100.00;96686.72;4359864;32;20364;-64
2024/01/23 11:13:08;;;;;;;0.50;0.50;;;;;;;6.27;100.00;96692.31;4361845;32;20301;-63
2024/01/23 11:15:33;;;;;;;0.20;0.20;;;;;;;6.32;100.00;96689.78;4358074;32;20307;-64
2024/01/23 11:18:28;;;;;;;0.10;0.10;;;;;;;6.34;100.00;96679.81;4354754;32;20297;-63
2024/01/23 11:21:05;;;;;;;1.43;0.67;;;;;;;6.33;100.00;96680.84;4344952;32;20303;-63
2024/01/23 11:23:39;;;;;;;0.30;0.30;;;;;;;6.51;100.00;96680.69;4348770;32;20309;-63
2024/01/23 11:26:18;;;;;;;0.17;0.13;;;;;;;6.71;100.00;96690.84;4363705;32;20292;-65
2024/01/23 11:28:47;;;;;;;0.20;0.20;;;;;;;6.72;100.00;96677.41;4367471;32;20320;-65